createdAt,value
2019-05-02T00:01:48.929Z,15.80
2019-05-02T00:04:21.036Z,16.50
2019-05-02T00:07:07.324Z,15.70
2019-05-02T00:09:47.284Z,15.77
2019-05-02T00:12:16.084Z,16.00
2019-05-02T00:14:46.343Z,16.17
2019-05-02T00:17:20.202Z,15.97
2019-05-02T00:19:51.116Z,16.00
2019-05-02T00:22:21.489Z,17.20
2019-05-02T00:24:51.680Z,19.33
2019-05-02T00:27:21.950Z,17.13
2019-05-02T00:29:53.902Z,16.80
2019-05-02T00:32:24.046Z,17.20
2019-05-02T00:34:54.354Z,18.60
2019-05-02T00:37:26.608Z,16.10
2019-05-02T00:39:56.382Z,16.37
2019-05-02T00:42:26.562Z,15.00
2019-05-02T00:44:56.746Z,14.17
2019-05-02T00:47:36.018Z,18.53
2019-05-02T00:50:11.204Z,17.67
2019-05-02T00:52:40.685Z,18.00
2019-05-02T00:55:11.178Z,15.97
2019-05-02T00:57:41.290Z,16.60
2019-05-02T01:00:13.433Z,16.60
2019-05-02T01:02:49.545Z,17.50
2019-05-02T01:05:19.755Z,16.27
2019-05-02T01:07:49.920Z,19.70
2019-05-02T01:10:21.234Z,19.50
2019-05-02T01:12:52.003Z,18.53
2019-05-02T01:15:22.263Z,16.33
2019-05-02T01:17:52.367Z,22.33
2019-05-02T01:20:27.512Z,20.23
2019-05-02T01:22:54.465Z,18.37
2019-05-02T01:25:24.648Z,21.33
2019-05-02T01:28:18.849Z,22.63
2019-05-02T01:31:23.458Z,22.43
2019-05-02T01:34:13.132Z,20.10
2019-05-02T01:36:47.804Z,21.97
2019-05-02T01:39:17.912Z,22.27
2019-05-02T01:41:48.080Z,19.90
2019-05-02T01:44:18.273Z,24.67
2019-05-02T01:46:48.453Z,23.37
2019-05-02T01:49:21.841Z,21.53
2019-05-02T01:51:50.573Z,21.17
2019-05-02T01:54:20.699Z,23.63
2019-05-02T01:56:51.008Z,24.03
2019-05-02T01:59:21.120Z,23.40
2019-05-02T02:01:53.136Z,22.87
2019-05-02T02:04:23.206Z,24.17
2019-05-02T02:06:53.384Z,25.23
2019-05-02T02:09:23.591Z,21.43
2019-05-02T02:11:53.702Z,23.00
2019-05-02T02:14:23.898Z,24.93
2019-05-02T02:16:54.092Z,23.43
2019-05-02T02:19:29.686Z,21.47
2019-05-02T02:22:07.040Z,24.17
2019-05-02T02:24:41.607Z,27.62
2019-05-02T02:27:11.697Z,23.43
2019-05-02T02:29:43.930Z,28.00
2019-05-02T02:32:20.148Z,24.23
2019-05-02T02:34:45.607Z,23.23
2019-05-02T02:37:15.704Z,25.53
2019-05-02T02:39:48.432Z,22.67
2019-05-02T02:42:17.485Z,22.23
2019-05-02T02:44:53.736Z,23.50
2019-05-02T02:47:23.873Z,21.93
2019-05-02T02:49:55.685Z,25.70
2019-05-02T02:52:25.923Z,20.77
2019-05-02T02:54:56.090Z,25.73
2019-05-02T02:57:28.511Z,24.37
2019-05-02T03:00:06.123Z,25.33
2019-05-02T03:02:30.162Z,29.17
2019-05-02T03:05:00.251Z,24.67
2019-05-02T03:07:30.430Z,24.97
2019-05-02T03:10:05.963Z,26.93
2019-05-02T03:13:06.376Z,27.50
2019-05-02T03:15:41.308Z,25.63
2019-05-02T03:18:11.487Z,25.47
2019-05-02T03:20:42.181Z,27.93
2019-05-02T03:23:15.313Z,26.37
2019-05-02T03:25:50.517Z,25.83
2019-05-02T03:28:18.547Z,27.90
2019-05-02T03:30:48.721Z,29.50
2019-05-02T03:33:18.901Z,27.07
2019-05-02T03:35:49.530Z,27.60
2019-05-02T03:38:31.030Z,29.80
2019-05-02T03:40:51.665Z,30.10
2019-05-02T03:43:25.898Z,29.60
2019-05-02T03:45:54.505Z,30.13
2019-05-02T03:48:25.938Z,27.77
2019-05-02T03:50:56.798Z,34.63
2019-05-02T03:53:27.717Z,26.80
2019-05-02T03:55:58.661Z,26.00
2019-05-02T03:58:31.567Z,27.40
2019-05-02T04:01:03.917Z,32.13
2019-05-02T04:03:40.991Z,29.03
2019-05-02T04:06:06.277Z,30.80
2019-05-02T04:08:38.200Z,123.80
2019-05-02T04:11:37.854Z,48.58
2019-05-02T04:13:59.807Z,33.43
2019-05-02T04:16:30.897Z,34.00
2019-05-02T04:19:04.501Z,32.03
2019-05-02T04:21:36.312Z,31.90
2019-05-02T04:24:13.344Z,29.67
2019-05-02T04:26:52.626Z,32.70
2019-05-02T04:29:12.273Z,27.73
2019-05-02T04:31:42.543Z,28.77
2019-05-02T04:34:15.147Z,33.37
2019-05-02T04:36:46.822Z,30.00
2019-05-02T04:39:21.201Z,27.00
2019-05-02T04:41:48.838Z,30.93
2019-05-02T04:44:19.129Z,33.87
2019-05-02T04:46:49.346Z,33.05
2019-05-02T04:49:28.576Z,30.23
2019-05-02T04:52:04.503Z,35.00
2019-05-02T04:54:31.280Z,30.93
2019-05-02T04:56:55.760Z,31.53
2019-05-02T04:59:28.299Z,33.77
2019-05-02T05:02:01.330Z,28.97
2019-05-02T05:04:33.161Z,33.53
2019-05-02T05:07:01.829Z,33.20
2019-05-02T05:09:32.382Z,34.73
2019-05-02T05:12:02.826Z,34.77
2019-05-02T05:14:39.109Z,31.63
2019-05-02T05:17:04.973Z,33.53
2019-05-02T05:19:37.191Z,30.37
2019-05-02T05:22:11.610Z,26.77
2019-05-02T05:24:52.117Z,32.97
2019-05-02T05:27:22.995Z,31.57
2019-05-02T05:29:58.392Z,32.93
2019-05-02T05:32:25.150Z,29.30
2019-05-02T05:34:55.268Z,34.27
2019-05-02T05:37:27.286Z,28.03
2019-05-02T05:39:58.046Z,29.13
2019-05-02T05:42:30.172Z,29.07
2019-05-02T05:45:03.709Z,33.10
2019-05-02T05:47:31.991Z,31.33
2019-05-02T05:50:02.209Z,27.80
2019-05-02T05:52:33.199Z,30.67
2019-05-02T05:55:04.954Z,34.40
2019-05-02T05:57:35.304Z,27.73
2019-05-02T06:00:11.512Z,31.53
2019-05-02T06:02:52.701Z,32.03
2019-05-02T06:05:10.573Z,32.53
2019-05-02T06:07:43.955Z,35.60
2019-05-02T06:10:12.581Z,34.33
2019-05-02T06:12:42.837Z,35.73
2019-05-02T06:15:13.223Z,38.73
2019-05-02T06:17:43.400Z,33.73
2019-05-02T06:20:15.111Z,37.50
2019-05-02T06:22:45.287Z,35.37
2019-05-02T06:25:16.976Z,35.67
2019-05-02T06:27:47.077Z,34.60
2019-05-02T06:30:17.470Z,37.00
2019-05-02T06:32:49.928Z,37.00
2019-05-02T06:35:21.202Z,34.93
2019-05-02T06:37:52.118Z,30.67
2019-05-02T06:40:22.496Z,33.10
2019-05-02T06:42:52.524Z,31.17
2019-05-02T06:45:22.910Z,30.57
2019-05-02T06:47:53.114Z,31.93
2019-05-02T06:50:24.867Z,29.77
2019-05-02T06:52:55.077Z,29.37
2019-05-02T06:55:28.181Z,34.20
2019-05-02T06:58:02.967Z,30.27
2019-05-02T07:00:35.421Z,26.10
2019-05-02T07:03:04.910Z,25.80
2019-05-02T07:05:33.009Z,29.80
2019-05-02T07:08:06.658Z,30.13
2019-05-02T07:10:44.327Z,30.03
2019-05-02T07:13:10.852Z,22.60
2019-05-02T07:15:55.398Z,28.97
2019-05-02T07:18:27.956Z,28.37
2019-05-02T07:20:58.172Z,29.70
2019-05-02T07:23:28.381Z,29.43
2019-05-02T07:26:00.348Z,32.77
2019-05-02T07:28:30.493Z,30.80
2019-05-02T07:31:00.819Z,32.73
2019-05-02T07:33:32.186Z,33.60
2019-05-02T07:36:02.939Z,33.40
2019-05-02T07:38:33.181Z,32.93
2019-05-02T07:41:03.448Z,31.50
2019-05-02T07:43:33.620Z,32.97
2019-05-02T07:46:03.950Z,36.33
2019-05-02T07:48:34.154Z,32.23
2019-05-02T07:51:04.422Z,31.03
2019-05-02T07:53:34.708Z,35.33
2019-05-02T07:56:04.935Z,31.90
2019-05-02T07:58:38.426Z,35.20
2019-05-02T08:01:08.041Z,30.97
2019-05-02T08:03:39.125Z,28.30
2019-05-02T08:06:09.334Z,27.77
2019-05-02T08:08:39.549Z,26.07
2019-05-02T08:11:09.753Z,23.70
2019-05-02T08:13:39.869Z,24.33
2019-05-02T08:16:10.080Z,26.27
2019-05-02T08:18:40.176Z,26.37
2019-05-02T08:21:10.401Z,26.47
2019-05-02T08:23:40.590Z,26.90
2019-05-02T08:26:10.726Z,28.50
2019-05-02T08:28:47.001Z,29.70
2019-05-02T08:31:20.794Z,30.53
2019-05-02T08:33:50.241Z,31.80
2019-05-02T08:36:20.467Z,33.50
2019-05-02T08:38:53.706Z,35.37
2019-05-02T08:41:22.538Z,29.57
2019-05-02T08:43:52.722Z,34.33
2019-05-02T08:46:22.920Z,31.73
2019-05-02T08:48:53.137Z,32.63
2019-05-02T08:51:23.292Z,30.07
2019-05-02T08:53:56.874Z,34.17
2019-05-02T08:56:25.407Z,30.67
2019-05-02T08:58:55.542Z,31.30
2019-05-02T09:01:35.015Z,30.50
2019-05-02T09:03:57.513Z,32.07
2019-05-02T09:06:27.892Z,33.43
2019-05-02T09:08:58.016Z,34.73
2019-05-02T09:11:28.202Z,28.10
2019-05-02T09:13:58.311Z,32.97
2019-05-02T09:16:30.429Z,30.13
2019-05-02T09:19:00.361Z,36.97
2019-05-02T09:21:35.965Z,30.63
2019-05-02T09:24:08.568Z,34.60
2019-05-02T09:26:38.730Z,31.27
2019-05-02T09:29:08.389Z,37.87
2019-05-02T09:31:42.252Z,33.07
2019-05-02T09:34:11.734Z,31.37
2019-05-02T09:36:41.980Z,30.07
2019-05-02T09:39:12.022Z,30.77
2019-05-02T09:41:42.212Z,33.47
2019-05-02T09:44:14.544Z,32.00
2019-05-02T09:46:47.526Z,34.33
2019-05-02T09:49:16.637Z,29.20
2019-05-02T09:51:50.490Z,34.03
2019-05-02T09:54:18.686Z,30.70
2019-05-02T09:56:48.886Z,37.43
2019-05-02T09:59:27.751Z,33.43
2019-05-02T10:01:52.816Z,30.97
2019-05-02T10:04:23.011Z,30.17
2019-05-02T10:06:53.121Z,29.13
2019-05-02T10:09:27.129Z,31.37
2019-05-02T10:11:55.413Z,29.93
2019-05-02T10:14:25.664Z,31.13
2019-05-02T10:16:57.598Z,29.47
2019-05-02T10:19:27.704Z,30.57
2019-05-02T10:21:57.854Z,29.87
2019-05-02T10:24:28.051Z,27.97
2019-05-02T10:27:04.313Z,27.63
2019-05-02T10:29:32.697Z,26.93
2019-05-02T10:32:02.057Z,30.83
2019-05-02T10:34:32.955Z,27.70
2019-05-02T10:37:03.330Z,24.87
2019-05-02T10:39:37.730Z,25.57
2019-05-02T10:42:05.427Z,24.10
2019-05-02T10:44:36.675Z,24.33
2019-05-02T10:47:06.995Z,25.67
2019-05-02T10:49:49.360Z,25.53
2019-05-02T10:52:21.560Z,26.87
2019-05-02T10:54:52.811Z,29.57
2019-05-02T10:57:23.146Z,27.03
2019-05-02T10:59:56.051Z,25.67
2019-05-02T11:02:53.390Z,26.20
2019-05-02T11:05:26.592Z,24.07
2019-05-02T11:08:01.481Z,24.47
2019-05-02T11:10:28.787Z,28.60
2019-05-02T11:13:07.326Z,22.90
2019-05-02T11:16:12.480Z,27.67
2019-05-02T11:19:02.400Z,26.23
2019-05-02T11:21:38.627Z,35.97
2019-05-02T11:24:18.285Z,21.50
2019-05-02T11:26:45.808Z,24.57
2019-05-02T11:29:16.009Z,26.50
2019-05-02T11:31:46.193Z,26.87
2019-05-02T11:34:16.381Z,25.57
2019-05-02T11:36:46.563Z,28.37
2019-05-02T11:39:25.366Z,26.30
2019-05-02T11:41:48.796Z,22.53
2019-05-02T11:44:19.646Z,25.88
2019-05-02T11:46:49.845Z,26.03
2019-05-02T11:49:20.161Z,24.83
2019-05-02T11:51:52.613Z,26.67
2019-05-02T11:54:22.744Z,23.97
2019-05-02T11:56:53.607Z,29.03
2019-05-02T11:59:28.232Z,25.07
2019-05-02T12:02:09.354Z,26.00
2019-05-02T12:04:38.209Z,22.67
2019-05-02T12:07:08.432Z,26.23
2019-05-02T12:09:38.598Z,24.97
2019-05-02T12:12:08.897Z,26.00
2019-05-02T12:14:39.086Z,23.43
2019-05-02T12:17:09.207Z,27.57
2019-05-02T12:19:39.319Z,27.77
2019-05-02T12:22:12.778Z,24.93
2019-05-02T12:24:45.277Z,25.70
2019-05-02T12:27:13.275Z,22.47
2019-05-02T12:29:43.563Z,27.23
2019-05-02T12:32:15.591Z,22.80
2019-05-02T12:34:45.577Z,24.87
2019-05-02T12:37:15.761Z,27.33
2019-05-02T12:39:45.958Z,21.73
2019-05-02T12:42:16.598Z,22.97
2019-05-02T12:44:46.973Z,22.77
2019-05-02T12:47:17.202Z,23.13
2019-05-02T12:49:47.390Z,25.23
2019-05-02T12:52:17.724Z,24.90
2019-05-02T12:54:47.897Z,22.43
2019-05-02T12:57:18.119Z,21.30
2019-05-02T12:59:48.250Z,24.20
2019-05-02T13:02:27.128Z,23.53
2019-05-02T13:04:57.326Z,26.17
2019-05-02T13:07:27.559Z,26.83
2019-05-02T13:09:57.620Z,24.73
2019-05-02T13:12:32.301Z,19.13
2019-05-02T13:15:02.717Z,21.23
2019-05-02T13:17:37.181Z,23.87
2019-05-02T13:20:07.343Z,22.20
2019-05-02T13:23:03.418Z,21.37
2019-05-02T13:25:36.919Z,20.90
2019-05-02T13:28:05.598Z,19.93
2019-05-02T13:30:46.782Z,22.23
2019-05-02T13:33:27.237Z,21.67
2019-05-02T13:35:58.255Z,21.27
2019-05-02T13:38:28.633Z,20.83
2019-05-02T13:40:58.823Z,21.77
2019-05-02T13:43:34.345Z,24.67
2019-05-02T13:46:18.121Z,24.10
2019-05-02T13:48:48.343Z,26.17
2019-05-02T13:51:18.602Z,23.57
2019-05-02T13:53:56.228Z,26.37
2019-05-02T13:56:45.456Z,25.72
2019-05-02T13:59:16.021Z,25.40
2019-05-02T14:01:48.081Z,25.20
2019-05-02T14:04:18.502Z,23.77
2019-05-02T14:06:48.881Z,35.63
2019-05-02T14:09:34.879Z,33.53
2019-05-02T14:12:19.016Z,34.73
2019-05-02T14:14:49.183Z,34.90
2019-05-02T14:17:19.432Z,32.20
2019-05-02T14:19:49.638Z,37.83
2019-05-02T14:22:19.828Z,33.93
2019-05-02T14:24:51.913Z,40.10
2019-05-02T14:27:22.429Z,37.07
2019-05-02T14:29:52.645Z,39.77
2019-05-02T14:32:26.305Z,38.10
2019-05-02T14:35:03.651Z,33.70
2019-05-02T14:37:33.760Z,33.60
2019-05-02T14:40:11.683Z,35.45
2019-05-02T14:42:41.976Z,35.37
2019-05-02T14:45:27.148Z,38.07
2019-05-02T14:47:44.197Z,36.23
2019-05-02T14:50:23.523Z,39.03
2019-05-02T14:52:46.775Z,37.93
2019-05-02T14:55:23.997Z,38.63
2019-05-02T14:57:49.355Z,43.73
2019-05-02T15:00:22.192Z,34.63
2019-05-02T15:02:52.393Z,37.03
2019-05-02T15:05:27.927Z,42.67
2019-05-02T15:07:56.751Z,40.13
2019-05-02T15:10:26.575Z,37.13
2019-05-02T15:12:59.518Z,42.40
2019-05-02T15:15:33.604Z,42.50
2019-05-02T15:18:02.723Z,46.83
2019-05-02T15:20:38.927Z,39.17
2019-05-02T15:23:07.305Z,42.00
2019-05-02T15:25:37.740Z,39.27
2019-05-02T15:28:12.923Z,40.90
2019-05-02T15:30:49.303Z,39.73
2019-05-02T15:33:17.256Z,40.90
2019-05-02T15:36:03.170Z,40.13
2019-05-02T15:38:32.395Z,45.37
2019-05-02T15:41:07.031Z,39.80
2019-05-02T15:43:34.618Z,39.33
2019-05-02T15:46:05.198Z,36.13
2019-05-02T15:48:35.493Z,33.70
2019-05-02T15:51:08.961Z,30.33
2019-05-02T15:54:05.327Z,24.30
2019-05-02T15:56:27.525Z,24.37
2019-05-02T15:59:02.034Z,21.17
2019-05-02T16:01:53.736Z,17.37
2019-05-02T16:04:27.358Z,21.07
2019-05-02T16:07:00.480Z,16.70
2019-05-02T16:09:29.470Z,19.57
2019-05-02T16:11:59.683Z,19.80
2019-05-02T16:14:34.125Z,17.47
2019-05-02T16:17:03.830Z,19.57
2019-05-02T16:19:37.991Z,18.47
2019-05-02T16:22:18.869Z,20.47
2019-05-02T16:24:51.051Z,20.43
2019-05-02T16:27:42.097Z,19.27
2019-05-02T16:30:13.369Z,21.00
2019-05-02T16:32:52.280Z,23.27
2019-05-02T16:35:23.462Z,22.57
2019-05-02T16:37:56.147Z,24.70
2019-05-02T16:40:34.330Z,26.10
2019-05-02T16:42:59.301Z,27.70
2019-05-02T16:45:29.608Z,29.43
2019-05-02T16:48:00.631Z,28.50
2019-05-02T16:50:33.010Z,27.13
2019-05-02T16:53:03.609Z,33.47
2019-05-02T16:55:33.876Z,25.63
2019-05-02T16:58:07.046Z,28.63
2019-05-02T17:00:36.886Z,29.73
2019-05-02T17:03:08.226Z,23.90
2019-05-02T17:05:39.319Z,22.53
2019-05-02T17:08:22.430Z,24.23
2019-05-02T17:11:17.444Z,25.07
2019-05-02T17:13:47.639Z,23.93
2019-05-02T17:16:17.932Z,28.77
2019-05-02T17:18:52.014Z,29.70
2019-05-02T17:21:22.061Z,27.20
2019-05-02T17:23:52.397Z,25.57
2019-05-02T17:26:22.882Z,27.23
2019-05-02T17:28:53.240Z,26.13
2019-05-02T17:31:23.619Z,25.23
2019-05-02T17:33:55.012Z,23.17
2019-05-02T17:36:28.636Z,23.47
2019-05-02T17:38:59.459Z,19.43
2019-05-02T17:41:29.160Z,18.63
2019-05-02T17:43:59.343Z,19.60
2019-05-02T17:46:29.406Z,22.73
2019-05-02T17:48:59.636Z,21.90
2019-05-02T17:51:38.337Z,24.93
2019-05-02T17:54:09.749Z,24.33
2019-05-02T17:56:41.624Z,23.13
2019-05-02T17:59:11.884Z,20.90
2019-05-02T18:01:42.218Z,22.20
2019-05-02T18:04:16.305Z,22.22
2019-05-02T18:06:46.951Z,22.60
2019-05-02T18:09:21.673Z,26.07
2019-05-02T18:11:51.911Z,19.93
2019-05-02T18:14:24.073Z,21.47
2019-05-02T18:16:55.583Z,20.93
2019-05-02T18:19:26.086Z,23.27
2019-05-02T18:21:58.141Z,23.90
2019-05-02T18:24:28.138Z,22.60
2019-05-02T18:26:58.412Z,23.73
2019-05-02T18:29:28.594Z,24.13
2019-05-02T18:31:58.817Z,24.07
2019-05-02T18:34:28.947Z,20.03
2019-05-02T18:37:02.949Z,25.23
2019-05-02T18:39:34.808Z,28.33
2019-05-02T18:42:03.402Z,24.17
2019-05-02T18:44:33.594Z,25.73
2019-05-02T18:47:03.829Z,25.83
2019-05-02T18:49:34.124Z,24.37
2019-05-02T18:52:04.413Z,24.73
2019-05-02T18:54:38.677Z,29.77
2019-05-02T18:57:07.170Z,27.23
2019-05-02T18:59:37.562Z,26.95
2019-05-02T19:02:07.851Z,30.57
2019-05-02T19:04:39.842Z,24.40
2019-05-02T19:07:12.764Z,25.57
2019-05-02T19:09:50.841Z,22.93
2019-05-02T19:12:22.464Z,24.33
2019-05-02T19:14:46.121Z,26.57
2019-05-02T19:17:16.355Z,26.43
2019-05-02T19:19:46.577Z,27.87
2019-05-02T19:22:17.145Z,26.00
2019-05-02T19:24:47.357Z,28.13
2019-05-02T19:27:38.578Z,28.87
2019-05-02T19:30:09.891Z,27.57
2019-05-02T19:32:41.723Z,26.23
2019-05-02T19:35:12.098Z,29.40
2019-05-02T19:37:44.612Z,28.43
2019-05-02T19:40:20.019Z,26.43
2019-05-02T19:42:49.894Z,28.43
2019-05-02T19:45:21.814Z,26.77
2019-05-02T19:47:54.247Z,21.33
2019-05-02T19:50:44.084Z,12.17
2019-05-02T19:53:18.142Z,10.53
2019-05-02T19:55:46.360Z,9.73
2019-05-02T19:58:16.583Z,8.47
2019-05-02T20:00:46.949Z,8.47
2019-05-02T20:03:21.674Z,8.10
2019-05-02T20:05:49.332Z,7.43
2019-05-02T20:08:22.831Z,10.97
2019-05-02T20:10:56.755Z,8.90
2019-05-02T20:13:28.049Z,9.40
2019-05-02T20:16:16.955Z,7.80
2019-05-02T20:18:47.433Z,8.63
2019-05-02T20:21:27.375Z,11.03
2019-05-02T20:23:54.810Z,8.00
2019-05-02T20:26:25.046Z,11.43
2019-05-02T20:28:55.301Z,8.17
2019-05-02T20:31:25.573Z,6.70
2019-05-02T20:33:55.821Z,10.17
2019-05-02T20:36:26.022Z,5.57
2019-05-02T20:38:56.214Z,7.23
2019-05-02T20:41:26.457Z,5.50
2019-05-02T20:43:56.561Z,6.20
2019-05-02T20:46:26.747Z,5.20
2019-05-02T20:48:56.947Z,4.07
2019-05-02T20:51:27.155Z,6.90
2019-05-02T20:53:57.343Z,3.70
2019-05-02T20:56:27.542Z,4.37
2019-05-02T20:58:57.669Z,2.60
2019-05-02T21:01:27.882Z,4.17
2019-05-02T21:03:58.055Z,3.37
2019-05-02T21:06:41.349Z,4.30
2019-05-02T21:09:36.985Z,3.35
2019-05-02T21:12:07.849Z,3.70
2019-05-02T21:14:38.058Z,5.87
2019-05-02T21:17:08.268Z,3.13
2019-05-02T21:19:38.440Z,2.57
2019-05-02T21:22:17.895Z,4.23
2019-05-02T21:24:48.087Z,3.73
2019-05-02T21:27:18.265Z,2.67
2019-05-02T21:29:48.347Z,3.00
2019-05-02T21:32:18.620Z,5.27
2019-05-02T21:34:48.795Z,2.53
2019-05-02T21:37:18.979Z,3.80
2019-05-02T21:39:49.216Z,3.90
2019-05-02T21:42:19.414Z,4.43
2019-05-02T21:44:51.629Z,3.93
2019-05-02T21:47:22.480Z,4.70
2019-05-02T21:50:12.322Z,3.10
2019-05-02T21:52:52.560Z,2.83
2019-05-02T21:55:38.861Z,5.20
2019-05-02T21:58:09.065Z,3.63
2019-05-02T22:01:02.167Z,5.17
2019-05-02T22:03:32.503Z,5.97
2019-05-02T22:06:02.705Z,6.13
2019-05-02T22:08:32.896Z,3.30
2019-05-02T22:11:03.124Z,7.80
2019-05-02T22:13:33.318Z,7.40
2019-05-02T22:16:03.503Z,6.90
2019-05-02T22:18:33.790Z,3.80
2019-05-02T22:21:03.969Z,4.57
2019-05-02T22:23:34.239Z,4.43
2019-05-02T22:26:04.380Z,4.30
2019-05-02T22:28:34.570Z,8.23
2019-05-02T22:31:04.771Z,4.28
2019-05-02T22:33:34.942Z,4.27
2019-05-02T22:36:05.148Z,6.33
2019-05-02T22:38:50.135Z,3.87
2019-05-02T22:41:22.127Z,3.57
2019-05-02T22:43:52.560Z,5.13
2019-05-02T22:46:44.541Z,3.63
2019-05-02T22:49:15.388Z,5.13
2019-05-02T22:51:45.844Z,2.40
2019-05-02T22:54:26.687Z,4.00
2019-05-02T22:56:47.939Z,5.97
2019-05-02T22:59:18.150Z,4.10
2019-05-02T23:01:48.337Z,3.03
2019-05-02T23:04:18.531Z,5.77
2019-05-02T23:06:48.732Z,4.70
2019-05-02T23:09:19.116Z,4.77
2019-05-02T23:11:49.295Z,4.40
2019-05-02T23:14:21.867Z,4.53
2019-05-02T23:16:52.818Z,4.13
2019-05-02T23:19:23.305Z,3.73
2019-05-02T23:21:53.470Z,4.17
2019-05-02T23:24:38.727Z,4.93
2019-05-02T23:27:31.765Z,2.90
2019-05-02T23:30:02.891Z,4.57
2019-05-02T23:32:33.170Z,2.40
2019-05-02T23:35:03.441Z,4.20
2019-05-02T23:37:33.628Z,3.97
2019-05-02T23:40:03.896Z,4.63
2019-05-02T23:42:34.236Z,5.23
2019-05-02T23:45:04.760Z,5.60
2019-05-02T23:47:34.946Z,5.70
2019-05-02T23:50:05.476Z,8.87
2019-05-02T23:52:35.651Z,8.67
2019-05-02T23:55:06.591Z,5.77
2019-05-02T23:57:36.796Z,7.77
